Time;durP1;ratioP1;P1;durP2;ratioP2;P2;SDS_P1;SDS_P2;PMS_P1;PMS_P2;Temp;Humidity;BMP_temperature;BMP_pressure;BME280_temperature;BME280_humidity;BME280_pressure;Samples;Min_cycle;Max_cycle;Signal;HPM_P1;HPM_P2
2021/08/22 00:00:04;;;;;;;16.10;11.07;;;20.00;99.90;;;;;;5015657;28;20196;-81
2021/08/22 00:02:29;;;;;;;23.27;11.85;;;20.00;99.90;;;;;;5014791;28;20183;-81
2021/08/22 00:04:55;;;;;;;17.55;12.85;;;20.00;99.90;;;;;;5014275;28;20172;-81
2021/08/22 00:07:21;;;;;;;18.27;12.55;;;20.00;99.90;;;;;;5014610;28;20200;-81
2021/08/22 00:09:47;;;;;;;22.83;12.73;;;20.00;99.90;;;;;;5013874;28;20181;-81
2021/08/22 00:12:12;;;;;;;21.38;12.82;;;19.80;99.90;;;;;;5015347;28;20173;-81
2021/08/22 00:14:38;;;;;;;22.42;13.02;;;19.70;99.90;;;;;;5015363;28;20583;-81
2021/08/22 00:17:04;;;;;;;18.80;13.00;;;19.50;99.90;;;;;;5015320;28;20199;-80
2021/08/22 00:19:29;;;;;;;23.55;14.25;;;19.50;99.90;;;;;;5015437;28;20275;-81
2021/08/22 00:21:55;;;;;;;26.67;15.50;;;19.60;99.90;;;;;;5015306;28;20200;-82
2021/08/22 00:24:21;;;;;;;24.83;14.27;;;19.50;99.90;;;;;;5014837;28;20172;-81
2021/08/22 00:26:46;;;;;;;24.17;15.50;;;19.60;99.90;;;;;;5013642;28;20188;-81
2021/08/22 00:29:12;;;;;;;29.67;17.15;;;19.70;99.90;;;;;;5015217;28;20172;-81
2021/08/22 00:31:38;;;;;;;21.98;15.25;;;19.70;99.90;;;;;;5014374;28;20181;-81
2021/08/22 00:34:03;;;;;;;22.98;16.23;;;19.50;99.90;;;;;;5015986;28;20256;-81
2021/08/22 00:36:29;;;;;;;28.05;16.58;;;19.50;99.90;;;;;;5013943;28;20799;-81
2021/08/22 00:38:55;;;;;;;22.63;15.88;;;19.30;99.90;;;;;;5015048;28;20689;-80
2021/08/22 00:41:20;;;;;;;25.73;16.33;;;19.20;99.90;;;;;;5014300;28;20259;-81
2021/08/22 00:43:46;;;;;;;24.92;16.23;;;19.30;99.90;;;;;;5014667;28;20556;-81
2021/08/22 00:46:12;;;;;;;27.70;17.33;;;19.20;99.90;;;;;;5015010;28;20192;-81
2021/08/22 00:48:40;;;;;;;27.65;17.92;;;19.10;99.90;;;;;;5013680;28;20257;-81
2021/08/22 00:51:06;;;;;;;34.08;17.33;;;19.20;99.90;;;;;;5013914;28;20541;-81
2021/08/22 00:53:32;;;;;;;26.52;16.33;;;19.20;99.90;;;;;;5013842;28;20609;-81
2021/08/22 00:56:03;;;;;;;27.83;18.05;;;19.20;99.90;;;;;;5014894;28;20671;-81
2021/08/22 00:58:30;;;;;;;24.40;16.40;;;19.40;99.90;;;;;;5014892;28;20253;-81
2021/08/22 01:00:56;;;;;;;26.75;15.90;;;19.30;99.90;;;;;;5013570;28;20271;-81
2021/08/22 01:03:32;;;;;;;32.22;16.65;;;19.30;99.90;;;;;;5014495;28;20902;-81
2021/08/22 01:06:27;;;;;;;28.17;17.15;;;19.40;99.90;;;;;;5014684;28;20214;-81
2021/08/22 01:09:08;;;;;;;20.45;15.02;;;19.30;99.90;;;;;;5013315;28;20176;-81
2021/08/22 01:11:37;;;;;;;26.05;15.65;;;19.30;99.90;;;;;;5014364;28;20168;-80
2021/08/22 01:14:09;;;;;;;21.25;14.38;;;19.30;99.90;;;;;;5014270;28;20180;-80
2021/08/22 01:16:39;;;;;;;16.15;13.50;;;19.10;99.90;;;;;;5014804;28;20181;-81
2021/08/22 01:19:30;;;;;;;20.10;13.77;;;19.30;99.90;;;;;;5013229;28;20187;-80
2021/08/22 01:21:58;;;;;;;17.70;12.60;;;19.40;99.90;;;;;;5006529;28;20223;-81
2021/08/22 01:24:25;;;;;;;17.05;13.50;;;19.50;99.90;;;;;;5012895;28;20176;-80
2021/08/22 01:26:53;;;;;;;26.83;13.30;;;19.70;99.90;;;;;;5012810;28;20215;-81
2021/08/22 01:29:21;;;;;;;15.63;12.52;;;19.70;99.90;;;;;;5012594;28;20178;-80
2021/08/22 01:31:49;;;;;;;13.93;11.30;;;19.70;99.90;;;;;;5013864;28;20219;-81
2021/08/22 01:34:16;;;;;;;16.92;11.43;;;19.60;99.90;;;;;;5012814;28;20192;-81
2021/08/22 01:36:42;;;;;;;14.00;11.77;;;19.70;99.90;;;;;;5013143;28;20181;-80
2021/08/22 01:39:09;;;;;;;16.75;11.98;;;19.80;99.90;;;;;;5013869;28;20164;-81
2021/08/22 01:41:36;;;;;;;14.48;11.25;;;19.70;99.90;;;;;;5013531;28;20200;-81
2021/08/22 01:44:03;;;;;;;15.25;12.00;;;19.70;99.90;;;;;;5012257;28;20534;-81
2021/08/22 01:46:36;;;;;;;16.83;11.77;;;19.90;99.90;;;;;;5012172;28;20605;-81
2021/08/22 01:49:10;;;;;;;15.32;11.32;;;19.70;99.90;;;;;;5013851;28;20203;-81
2021/08/22 01:51:37;;;;;;;16.42;12.90;;;19.40;99.90;;;;;;5013521;28;20170;-80
2021/08/22 01:54:07;;;;;;;23.85;13.15;;;19.30;99.90;;;;;;5012183;28;20704;-80
2021/08/22 01:56:33;;;;;;;20.70;12.55;;;19.20;99.90;;;;;;5013546;28;20188;-81
2021/08/22 01:59:00;;;;;;;16.33;12.68;;;19.20;99.90;;;;;;5013666;28;20196;-81
2021/08/22 02:01:26;;;;;;;20.38;13.80;;;19.40;99.90;;;;;;5011889;28;20258;-81
2021/08/22 02:04:00;;;;;;;20.60;13.73;;;19.50;99.90;;;;;;5013351;28;20172;-80
2021/08/22 02:06:28;;;;;;;16.90;13.40;;;19.50;99.90;;;;;;5012357;28;20234;-81
2021/08/22 02:09:02;;;;;;;18.98;13.27;;;19.40;99.90;;;;;;5013256;28;20169;-79
2021/08/22 02:11:37;;;;;;;18.85;13.82;;;19.20;99.90;;;;;;5013448;28;20303;-81
2021/08/22 02:14:05;;;;;;;18.45;14.52;;;19.30;99.90;;;;;;5013000;28;20244;-81
2021/08/22 02:16:32;;;;;;;20.10;12.82;;;19.40;99.90;;;;;;5013518;28;20242;-81
2021/08/22 02:18:59;;;;;;;25.85;13.73;;;19.40;99.90;;;;;;5011842;28;20541;-81
2021/08/22 02:21:25;;;;;;;19.92;13.48;;;19.40;99.90;;;;;;5012820;28;20215;-80
2021/08/22 02:23:52;;;;;;;15.90;13.57;;;19.60;99.90;;;;;;5012964;28;20173;-81
2021/08/22 02:26:18;;;;;;;17.50;13.52;;;19.80;99.90;;;;;;5011936;28;20189;-81
2021/08/22 02:28:55;;;;;;;15.15;12.40;;;19.90;99.90;;;;;;5012964;28;20242;-81
2021/08/22 02:31:21;;;;;;;18.10;12.52;;;19.90;99.90;;;;;;5013212;28;20755;-81
2021/08/22 02:33:47;;;;;;;22.52;11.23;;;19.70;99.90;;;;;;5012816;28;20251;-81
2021/08/22 02:36:12;;;;;;;17.30;11.00;;;19.60;99.90;;;;;;5012503;28;20189;-81
2021/08/22 02:38:38;;;;;;;15.05;11.23;;;19.60;99.90;;;;;;5012919;28;20212;-82
2021/08/22 02:41:03;;;;;;;15.68;12.65;;;19.60;99.90;;;;;;5012771;28;20232;-81
2021/08/22 02:43:29;;;;;;;15.52;10.75;;;19.60;99.90;;;;;;5012628;28;20176;-82
2021/08/22 02:45:55;;;;;;;14.80;11.68;;;19.60;99.90;;;;;;5011462;28;20691;-82
2021/08/22 02:48:20;;;;;;;15.95;12.13;;;19.60;99.90;;;;;;5014346;28;20628;-82
2021/08/22 02:50:46;;;;;;;21.65;9.98;;;19.70;99.90;;;;;;5016465;28;20176;-82
2021/08/22 02:53:11;;;;;;;19.05;11.05;;;19.70;99.90;;;;;;5016773;28;20171;-80
2021/08/22 02:55:37;;;;;;;12.75;11.50;;;19.50;99.90;;;;;;5014849;28;20172;-80
2021/08/22 02:58:03;;;;;;;10.25;9.25;;;19.60;99.90;;;;;;5015348;28;20176;-80
2021/08/22 03:00:29;;;;;;;16.15;11.07;;;19.60;99.90;;;;;;5016673;28;20545;-79
2021/08/22 03:02:55;;;;;;;21.42;10.90;;;19.60;99.90;;;;;;5016758;28;20171;-82
2021/08/22 03:05:20;;;;;;;16.40;10.77;;;19.60;99.90;;;;;;5015154;28;20215;-81
2021/08/22 03:07:46;;;;;;;16.30;9.57;;;19.60;99.90;;;;;;5015149;28;20722;-80
2021/08/22 03:10:12;;;;;;;11.98;10.20;;;19.40;99.90;;;;;;5016203;28;20171;-81
2021/08/22 03:12:38;;;;;;;11.00;8.82;;;19.40;99.90;;;;;;5015883;28;20164;-81
2021/08/22 03:15:07;;;;;;;10.43;9.13;;;19.20;99.90;;;;;;5016494;28;20199;-81
2021/08/22 03:17:33;;;;;;;10.80;8.65;;;19.20;99.90;;;;;;5015108;28;20672;-80
2021/08/22 03:20:03;;;;;;;11.02;9.07;;;19.20;99.90;;;;;;5015578;28;20186;-80
2021/08/22 03:22:28;;;;;;;11.45;8.55;;;19.40;99.90;;;;;;5016029;28;20263;-81
2021/08/22 03:24:54;;;;;;;8.93;8.07;;;19.60;99.90;;;;;;5016140;28;20260;-80
2021/08/22 03:27:19;;;;;;;13.73;9.52;;;19.70;99.90;;;;;;5015864;28;20223;-81
2021/08/22 03:29:45;;;;;;;12.60;8.95;;;19.50;99.90;;;;;;5014619;28;20192;-80
2021/08/22 03:32:11;;;;;;;9.45;8.55;;;19.50;99.90;;;;;;5014455;28;20169;-81
2021/08/22 03:34:36;;;;;;;11.10;8.80;;;19.30;99.90;;;;;;5015753;28;20161;-81
2021/08/22 03:37:02;;;;;;;10.50;8.00;;;19.20;99.90;;;;;;5014486;28;20571;-80
2021/08/22 03:39:28;;;;;;;9.02;7.47;;;19.10;99.90;;;;;;5014572;28;20168;-81
2021/08/22 03:41:54;;;;;;;9.85;9.00;;;19.20;99.90;;;;;;5014257;28;20224;-80
2021/08/22 03:44:19;;;;;;;12.50;8.82;;;19.10;99.90;;;;;;5014636;28;20171;-80
2021/08/22 03:46:45;;;;;;;12.38;7.43;;;19.40;99.90;;;;;;5015407;28;20184;-81
2021/08/22 03:49:10;;;;;;;8.15;6.53;;;19.30;99.90;;;;;;5015545;28;20165;-81
2021/08/22 03:51:36;;;;;;;8.70;7.93;;;19.20;99.90;;;;;;5014435;28;20235;-81
2021/08/22 03:54:02;;;;;;;9.93;8.32;;;19.30;99.90;;;;;;5015770;28;20210;-80
2021/08/22 03:56:27;;;;;;;13.73;7.82;;;19.30;99.90;;;;;;5015371;28;20188;-80
2021/08/22 03:58:53;;;;;;;8.13;7.32;;;19.30;99.90;;;;;;5014412;28;20168;-81
2021/08/22 04:01:18;;;;;;;12.13;7.82;;;19.20;99.90;;;;;;5015407;28;20215;-81
2021/08/22 04:03:44;;;;;;;8.02;7.22;;;19.40;99.90;;;;;;5015250;28;20298;-81
2021/08/22 04:06:10;;;;;;;7.85;7.00;;;19.30;99.90;;;;;;5013697;28;20188;-80
2021/08/22 04:08:36;;;;;;;8.05;7.25;;;19.30;99.90;;;;;;5013905;28;20661;-80
2021/08/22 04:11:02;;;;;;;7.25;6.55;;;19.30;99.90;;;;;;5014058;28;20183;-81
2021/08/22 04:13:27;;;;;;;12.80;7.38;;;19.20;99.90;;;;;;5014331;28;20259;-81
2021/08/22 04:15:53;;;;;;;8.05;6.28;;;19.20;99.90;;;;;;5014932;28;20655;-81
2021/08/22 04:18:19;;;;;;;6.95;6.35;;;19.10;99.90;;;;;;5014950;28;20164;-81
2021/08/22 04:20:44;;;;;;;6.78;6.07;;;19.20;99.90;;;;;;5014894;28;20220;-81
2021/08/22 04:23:11;;;;;;;9.90;5.55;;;19.30;99.90;;;;;;5014878;28;20173;-81
2021/08/22 04:25:37;;;;;;;7.07;6.38;;;19.40;99.90;;;;;;5014881;28;20624;-80
2021/08/22 04:28:04;;;;;;;11.90;5.85;;;19.40;99.90;;;;;;5013437;28;20173;-81
2021/08/22 04:30:30;;;;;;;10.75;6.05;;;19.20;99.90;;;;;;5013623;28;20210;-81
2021/08/22 04:32:56;;;;;;;11.13;6.55;;;19.30;99.90;;;;;;5013385;28;20208;-80
2021/08/22 04:35:21;;;;;;;7.50;5.43;;;19.20;99.90;;;;;;5014658;28;20184;-81
2021/08/22 04:37:47;;;;;;;8.00;4.90;;;19.20;99.90;;;;;;5012703;28;20188;-81
2021/08/22 04:40:12;;;;;;;13.77;6.35;;;19.40;99.90;;;;;;5014885;28;20192;-81
2021/08/22 04:42:38;;;;;;;9.88;5.85;;;19.40;99.90;;;;;;5013384;28;20172;-80
2021/08/22 04:45:04;;;;;;;5.53;5.03;;;19.20;99.90;;;;;;5013415;28;20176;-80
2021/08/22 04:47:30;;;;;;;9.65;5.68;;;19.30;99.90;;;;;;5013907;28;20219;-81
2021/08/22 04:49:56;;;;;;;10.73;5.55;;;19.30;99.90;;;;;;5014393;28;20164;-81
2021/08/22 04:52:21;;;;;;;9.23;5.75;;;19.20;99.90;;;;;;5013241;28;20168;-82
2021/08/22 04:54:47;;;;;;;6.40;5.15;;;19.20;99.90;;;;;;5014493;28;20259;-81
2021/08/22 04:57:13;;;;;;;7.32;5.97;;;19.10;99.90;;;;;;5014079;28;20180;-81
2021/08/22 04:59:38;;;;;;;5.85;5.35;;;19.10;99.90;;;;;;5014192;28;20175;-81
2021/08/22 05:02:05;;;;;;;10.68;5.15;;;18.90;99.90;;;;;;5012853;28;20209;-80
2021/08/22 05:04:31;;;;;;;5.85;4.75;;;18.90;99.90;;;;;;5013019;28;20540;-80
2021/08/22 05:06:57;;;;;;;11.55;5.55;;;18.80;99.90;;;;;;5014086;28;20180;-80
2021/08/22 05:09:22;;;;;;;6.60;5.90;;;19.00;99.90;;;;;;5014026;28;20226;-80
2021/08/22 05:11:48;;;;;;;6.85;5.65;;;19.10;99.90;;;;;;5013757;28;20677;-80
2021/08/22 05:14:14;;;;;;;10.02;4.93;;;19.10;99.90;;;;;;5013039;28;20509;-81
2021/08/22 05:16:41;;;;;;;6.07;5.25;;;19.10;99.90;;;;;;5013823;28;20196;-80
2021/08/22 05:19:07;;;;;;;8.60;4.93;;;19.30;99.90;;;;;;5012604;28;20995;-80
2021/08/22 05:21:32;;;;;;;6.00;4.88;;;19.50;99.90;;;;;;5013718;28;20256;-82
2021/08/22 05:23:58;;;;;;;9.82;4.63;;;19.40;99.90;;;;;;5012541;28;20263;-81
2021/08/22 05:26:24;;;;;;;6.75;4.78;;;19.20;99.90;;;;;;5013427;28;20197;-80
2021/08/22 05:28:50;;;;;;;4.28;3.88;;;19.20;99.90;;;;;;5013535;28;20169;-81
2021/08/22 05:31:16;;;;;;;6.05;4.55;;;19.20;99.90;;;;;;5012131;28;20204;-81
2021/08/22 05:33:44;;;;;;;15.57;4.38;;;19.20;99.90;;;;;;5013437;28;20230;-80
2021/08/22 05:36:22;;;;;;;5.50;4.30;;;19.40;99.90;;;;;;5012254;28;20200;-81
2021/08/22 05:38:49;;;;;;;4.70;3.50;;;19.50;99.90;;;;;;5013648;28;20672;-81
2021/08/22 05:41:15;;;;;;;6.47;3.50;;;19.50;99.90;;;;;;5013390;28;20621;-81
2021/08/22 05:43:41;;;;;;;4.88;3.70;;;19.60;99.90;;;;;;5013400;28;20167;-81
2021/08/22 05:46:08;;;;;;;4.07;3.50;;;19.60;99.90;;;;;;5013235;28;20185;-81
2021/08/22 05:48:33;;;;;;;5.85;3.97;;;19.70;99.90;;;;;;5011874;28;20307;-80
2021/08/22 05:51:02;;;;;;;5.65;2.92;;;19.90;99.90;;;;;;5013241;28;20279;-81
2021/08/22 05:53:28;;;;;;;3.75;3.30;;;19.90;99.90;;;;;;5013394;28;20242;-81
2021/08/22 05:55:58;;;;;;;7.75;3.97;;;20.00;99.90;;;;;;5013545;28;20202;-82
2021/08/22 05:58:24;;;;;;;7.45;3.35;;;19.90;99.90;;;;;;5022933;28;20199;-82
2021/08/22 06:00:50;;;;;;;8.18;3.10;;;20.00;99.90;;;;;;5034645;28;20172;-81
2021/08/22 06:03:15;;;;;;;4.45;2.95;;;20.00;99.90;;;;;;5030145;28;20191;-81
2021/08/22 06:05:41;;;;;;;5.00;3.10;;;19.60;99.90;;;;;;5028199;28;20173;-81
2021/08/22 06:08:07;;;;;;;10.15;3.72;;;19.50;99.90;;;;;;5026153;28;20540;-80
2021/08/22 06:10:33;;;;;;;5.22;3.30;;;19.40;99.90;;;;;;5028200;28;20388;-81
2021/08/22 06:12:59;;;;;;;5.00;3.22;;;19.50;99.90;;;;;;5020414;28;20173;-81
2021/08/22 06:15:24;;;;;;;8.27;3.53;;;19.60;99.90;;;;;;5024275;28;20247;-80
2021/08/22 06:17:50;;;;;;;14.43;3.70;;;19.70;99.90;;;;;;5022440;28;20224;-80
2021/08/22 06:20:16;;;;;;;5.97;3.28;;;19.80;99.90;;;;;;5021946;28;20184;-81
2021/08/22 06:22:41;;;;;;;4.93;2.85;;;20.00;99.90;;;;;;5012632;28;20524;-80
2021/08/22 06:25:07;;;;;;;5.35;2.72;;;19.90;99.90;;;;;;5013477;28;20226;-80
2021/08/22 06:27:33;;;;;;;6.47;3.33;;;20.00;99.90;;;;;;5013121;28;20189;-81
2021/08/22 06:30:00;;;;;;;8.82;3.25;;;20.10;99.90;;;;;;5013048;28;20168;-80
2021/08/22 06:32:26;;;;;;;5.10;3.08;;;20.30;99.90;;;;;;5011495;28;20176;-81
2021/08/22 06:34:52;;;;;;;11.20;3.25;;;20.20;99.90;;;;;;5012765;28;20489;-80
2021/08/22 06:37:18;;;;;;;5.60;3.33;;;20.20;99.90;;;;;;5011249;28;20195;-80
2021/08/22 06:39:47;;;;;;;4.13;2.60;;;19.90;99.90;;;;;;5011374;28;20186;-80
2021/08/22 06:42:13;;;;;;;8.50;3.00;;;20.00;99.90;;;;;;5011049;28;20875;-80
2021/08/22 06:44:39;;;;;;;5.35;3.25;;;20.30;99.90;;;;;;5013213;28;20581;-80
2021/08/22 06:47:07;;;;;;;14.10;2.78;;;20.60;99.90;;;;;;5013384;28;20196;-83
2021/08/22 06:49:33;;;;;;;4.57;3.03;;;20.70;99.90;;;;;;5012283;28;20636;-82
2021/08/22 06:51:59;;;;;;;4.32;2.63;;;20.90;99.90;;;;;;5012575;28;20668;-84
2021/08/22 06:54:25;;;;;;;4.13;2.90;;;20.70;99.90;;;;;;5011834;28;20165;-80
2021/08/22 06:56:53;;;;;;;9.90;2.78;;;20.80;99.90;;;;;;5011378;28;20568;-80
2021/08/22 06:59:18;;;;;;;4.50;2.90;;;20.50;99.90;;;;;;5012287;28;20191;-81
2021/08/22 07:01:44;;;;;;;5.05;2.70;;;20.70;99.90;;;;;;5012221;28;20263;-81
2021/08/22 07:04:12;;;;;;;3.45;2.65;;;20.50;99.90;;;;;;5012167;28;20168;-81
2021/08/22 07:06:38;;;;;;;8.43;2.67;;;20.60;99.90;;;;;;5011947;28;20338;-81
2021/08/22 07:09:04;;;;;;;10.07;3.03;;;20.50;99.90;;;;;;5012303;28;20243;-81
2021/08/22 07:11:29;;;;;;;9.20;2.28;;;20.40;99.90;;;;;;5012145;28;20208;-81
2021/08/22 07:13:55;;;;;;;8.15;2.30;;;20.20;99.90;;;;;;5011668;28;20168;-80
2021/08/22 07:16:21;;;;;;;3.90;2.53;;;20.20;99.90;;;;;;5012099;28;20211;-81
2021/08/22 07:18:47;;;;;;;5.00;2.97;;;20.20;99.90;;;;;;5012066;28;20173;-83
2021/08/22 07:21:12;;;;;;;5.18;2.70;;;20.10;99.90;;;;;;5011794;28;20180;-80
2021/08/22 07:23:38;;;;;;;6.30;2.63;;;20.20;99.90;;;;;;5011886;28;20175;-83
2021/08/22 07:26:03;;;;;;;5.05;2.80;;;20.50;99.90;;;;;;5012610;28;20224;-80
2021/08/22 07:28:29;;;;;;;6.05;2.95;;;20.70;99.90;;;;;;5009744;28;20239;-80
2021/08/22 07:30:55;;;;;;;4.38;2.72;;;20.80;99.90;;;;;;5010800;28;20215;-80
2021/08/22 07:33:20;;;;;;;4.32;2.70;;;21.00;99.90;;;;;;5011517;28;20173;-80
2021/08/22 07:35:46;;;;;;;3.78;2.70;;;20.90;99.90;;;;;;5012876;28;20177;-80
2021/08/22 07:38:12;;;;;;;7.10;2.80;;;21.30;99.90;;;;;;5013996;28;20572;-80
2021/08/22 07:40:38;;;;;;;3.58;2.92;;;21.50;99.90;;;;;;5013296;28;20173;-78
2021/08/22 07:43:04;;;;;;;9.68;2.50;;;21.60;99.90;;;;;;5014480;28;20181;-79
2021/08/22 07:45:30;;;;;;;13.57;3.10;;;21.60;99.90;;;;;;5012603;28;20184;-79
2021/08/22 07:47:55;;;;;;;6.43;3.03;;;21.30;99.90;;;;;;5011817;28;20207;-78
2021/08/22 07:50:21;;;;;;;7.15;2.65;;;21.10;99.90;;;;;;5014005;28;20224;-78
2021/08/22 07:52:47;;;;;;;5.75;2.90;;;20.90;99.90;;;;;;5013936;28;20183;-78
2021/08/22 07:55:13;;;;;;;16.98;3.55;;;20.70;99.90;;;;;;5013811;28;20207;-81
2021/08/22 07:57:39;;;;;;;7.80;3.20;;;20.70;99.90;;;;;;5012163;28;20552;-80
2021/08/22 08:00:05;;;;;;;11.10;3.25;;;20.60;99.90;;;;;;5014184;28;20168;-80
2021/08/22 08:02:31;;;;;;;5.28;2.83;;;20.40;99.90;;;;;;5012856;28;20177;-79
2021/08/22 08:04:56;;;;;;;5.43;3.20;;;20.20;99.90;;;;;;5012494;28;20175;-79
2021/08/22 08:07:22;;;;;;;4.15;2.67;;;19.90;99.90;;;;;;5013643;28;20251;-79
2021/08/22 08:09:48;;;;;;;5.03;3.40;;;19.70;99.90;;;;;;5013207;28;20173;-79
2021/08/22 08:12:14;;;;;;;12.25;3.90;;;19.70;99.90;;;;;;5013099;28;20204;-79
2021/08/22 08:14:39;;;;;;;14.38;4.10;;;19.70;99.90;;;;;;5014475;28;20171;-79
2021/08/22 08:17:06;;;;;;;6.30;3.42;;;19.90;99.90;;;;;;5014629;28;20540;-80
2021/08/22 08:19:32;;;;;;;4.78;3.50;;;20.10;99.90;;;;;;5015278;28;20570;-78
2021/08/22 08:21:58;;;;;;;4.30;2.92;;;20.10;99.90;;;;;;5015282;28;20251;-78
2021/08/22 08:24:23;;;;;;;6.47;3.45;;;20.20;99.90;;;;;;5015417;28;20183;-78
2021/08/22 08:26:49;;;;;;;9.10;4.20;;;20.40;99.90;;;;;;5014686;28;20207;-81
2021/08/22 08:29:14;;;;;;;8.07;3.42;;;20.30;99.90;;;;;;5015051;28;20274;-81
2021/08/22 08:31:40;;;;;;;5.57;3.75;;;20.10;99.90;;;;;;5014488;28;20691;-79
2021/08/22 08:34:06;;;;;;;4.80;3.05;;;20.20;99.90;;;;;;5014789;28;20169;-86
2021/08/22 08:36:31;;;;;;;10.68;3.35;;;20.30;99.90;;;;;;5014436;28;20192;-83
2021/08/22 08:38:57;;;;;;;3.50;2.83;;;20.30;99.90;;;;;;5015091;28;20180;-82
2021/08/22 08:41:23;;;;;;;6.93;3.05;;;20.20;99.90;;;;;;5014625;28;20160;-81
2021/08/22 08:43:49;;;;;;;3.03;2.53;;;20.40;99.90;;;;;;5013587;28;20164;-81
2021/08/22 08:46:21;;;;;;;8.00;2.30;;;20.30;99.90;;;;;;5012911;28;20192;-83
2021/08/22 08:49:17;;;;;;;3.80;2.40;;;20.30;99.90;;;;;;5013467;28;20267;-82
2021/08/22 08:52:00;;;;;;;8.02;2.83;;;20.40;99.90;;;;;;5014041;28;20287;-82
2021/08/22 08:54:39;;;;;;;4.45;2.00;;;20.40;99.90;;;;;;5013132;28;20169;-82
2021/08/22 08:57:05;;;;;;;5.32;2.53;;;20.30;99.90;;;;;;5012593;28;20271;-82
2021/08/22 08:59:38;;;;;;;3.17;2.20;;;20.40;99.90;;;;;;5014477;28;20740;-81
2021/08/22 09:02:03;;;;;;;2.90;2.60;;;20.40;99.90;;;;;;5013832;28;20252;-81
2021/08/22 09:04:30;;;;;;;6.13;2.80;;;20.40;99.90;;;;;;5012455;28;20582;-82
2021/08/22 09:07:23;;;;;;;5.70;3.10;;;20.10;99.90;;;;;;5022639;28;20196;-81
2021/08/22 09:10:11;;;;;;;4.72;3.22;;;19.90;99.90;;;;;;5031453;28;20211;-80
2021/08/22 09:13:03;;;;;;;2.92;2.58;;;20.00;99.90;;;;;;5032124;28;20208;-80
2021/08/22 09:16:00;;;;;;;8.00;2.80;;;19.90;99.90;;;;;;5032851;28;20179;-81
2021/08/22 09:18:57;;;;;;;4.57;3.30;;;19.90;99.90;;;;;;5031929;28;20179;-80
2021/08/22 09:22:00;;;;;;;4.60;3.72;;;19.90;99.90;;;;;;5034137;28;20176;-80
2021/08/22 09:24:31;;;;;;;6.90;2.58;;;20.00;99.90;;;;;;5033614;28;20707;-81
2021/08/22 09:27:38;;;;;;;7.55;2.75;;;19.90;99.90;;;;;;5031747;28;20187;-80
2021/08/22 09:30:31;;;;;;;5.70;2.20;;;19.90;99.90;;;;;;5032947;28;20186;-81
2021/08/22 09:33:34;;;;;;;3.53;2.38;;;20.10;99.90;;;;;;5033729;28;20176;-80
2021/08/22 09:36:18;;;;;;;11.00;2.45;;;20.10;99.90;;;;;;5033347;28;20199;-83
2021/08/22 09:39:21;;;;;;;3.35;3.00;;;20.20;99.90;;;;;;5032426;28;20534;-80
2021/08/22 09:42:24;;;;;;;2.25;2.05;;;20.00;99.90;;;;;;5033922;28;20229;-81
2021/08/22 09:45:27;;;;;;;2.78;2.53;;;20.50;99.90;;;;;;5034787;28;20167;-81
2021/08/22 09:48:19;;;;;;;2.63;2.25;;;20.90;99.90;;;;;;5037277;28;20242;-80
2021/08/22 09:51:23;;;;;;;4.88;2.25;;;21.40;99.90;;;;;;5047704;28;20218;-80
2021/08/22 09:54:19;;;;;;;3.03;1.77;;;21.50;99.90;;;;;;5044288;28;20275;-79
2021/08/22 09:57:24;;;;;;;3.13;1.52;;;21.70;99.90;;;;;;5032815;28;20203;-82
2021/08/22 10:00:14;;;;;;;2.70;1.70;;;22.00;99.90;;;;;;5020926;28;20210;-80
2021/08/22 10:02:49;;;;;;;4.63;1.95;;;22.10;99.90;;;;;;5032956;28;20706;-80
2021/08/22 10:05:26;;;;;;;3.88;2.63;;;22.30;99.90;;;;;;5032756;28;20171;-81
2021/08/22 10:07:55;;;;;;;2.20;1.65;;;22.40;99.90;;;;;;5031156;28;20591;-79
2021/08/22 10:10:50;;;;;;;2.78;1.80;;;21.90;99.90;;;;;;5032170;28;20164;-79
2021/08/22 10:13:16;;;;;;;3.22;2.20;;;21.80;99.90;;;;;;5021973;28;20602;-79
2021/08/22 10:15:44;;;;;;;3.00;2.00;;;21.80;99.90;;;;;;5032126;28;20156;-80
2021/08/22 10:18:09;;;;;;;2.35;2.15;;;21.80;99.90;;;;;;5032688;28;20232;-80
2021/08/22 10:20:43;;;;;;;1.95;1.77;;;21.80;99.90;;;;;;5032305;28;20633;-79
2021/08/22 10:23:41;;;;;;;3.33;2.13;;;21.80;99.90;;;;;;5032231;28;20206;-81
2021/08/22 10:26:08;;;;;;;2.10;1.80;;;21.70;99.90;;;;;;5030512;28;20199;-81
2021/08/22 10:28:53;;;;;;;2.28;1.90;;;21.90;99.90;;;;;;5031034;28;20700;-81
2021/08/22 10:31:49;;;;;;;3.28;2.00;;;22.30;99.90;;;;;;5030487;28;20211;-80
2021/08/22 10:34:20;;;;;;;1.80;1.70;;;22.60;99.90;;;;;;5032132;28;20167;-80
2021/08/22 10:36:46;;;;;;;2.28;1.83;;;22.60;99.90;;;;;;5032599;28;20179;-79
2021/08/22 10:39:25;;;;;;;6.05;2.00;;;22.60;99.90;;;;;;5032703;28;20168;-79
2021/08/22 10:41:51;;;;;;;3.33;2.03;;;22.50;99.90;;;;;;5032289;28;20171;-80
2021/08/22 10:44:32;;;;;;;2.35;2.03;;;22.50;99.90;;;;;;5031952;28;20168;-81
2021/08/22 10:47:01;;;;;;;1.75;1.65;;;22.90;99.90;;;;;;5031672;28;20203;-81
2021/08/22 10:49:54;;;;;;;2.60;1.70;;;22.90;99.90;;;;;;5032058;28;20168;-81
2021/08/22 10:52:24;;;;;;;3.42;2.17;;;22.80;99.90;;;;;;5031632;28;20216;-80
2021/08/22 10:55:14;;;;;;;2.55;1.75;;;22.70;99.90;;;;;;5027425;28;20177;-79
2021/08/22 10:57:49;;;;;;;2.03;1.58;;;22.40;99.90;;;;;;5020298;28;20620;-80
2021/08/22 11:00:20;;;;;;;3.88;1.40;;;22.00;99.90;;;;;;5025561;28;20202;-79
2021/08/22 11:02:46;;;;;;;3.90;1.40;;;21.80;99.90;;;;;;5045321;28;20183;-81
2021/08/22 11:05:17;;;;;;;1.20;1.10;;;21.20;99.90;;;;;;5030740;28;20180;-79
2021/08/22 11:07:48;;;;;;;3.03;1.45;;;21.40;99.90;;;;;;5031039;28;20274;-80
2021/08/22 11:10:14;;;;;;;1.95;1.52;;;21.10;99.90;;;;;;5033305;28;20172;-79
2021/08/22 11:12:40;;;;;;;1.85;1.73;;;20.90;99.90;;;;;;5032878;28;20191;-78
2021/08/22 11:15:07;;;;;;;2.85;2.03;;;20.70;99.90;;;;;;5034610;28;20213;-80
2021/08/22 11:17:34;;;;;;;5.63;2.75;;;20.50;99.90;;;;;;5035340;28;20270;-77
2021/08/22 11:20:11;;;;;;;2.40;1.67;;;20.40;99.90;;;;;;5035299;28;20244;-77
2021/08/22 11:22:37;;;;;;;2.13;1.50;;;20.40;99.90;;;;;;5033989;28;20187;-79
2021/08/22 11:25:04;;;;;;;3.17;1.85;;;21.00;99.90;;;;;;5050853;28;20156;-78
2021/08/22 11:27:30;;;;;;;2.38;1.60;;;21.30;99.90;;;;;;5029435;28;20203;-79
2021/08/22 11:30:05;;;;;;;2.85;1.40;;;21.40;99.90;;;;;;5035262;28;20624;-81
2021/08/22 11:32:31;;;;;;;6.53;1.85;;;21.40;99.90;;;;;;5029111;28;20171;-83
2021/08/22 11:35:12;;;;;;;2.10;1.70;;;21.60;99.90;;;;;;5028008;28;20616;-84
2021/08/22 11:37:38;;;;;;;2.42;2.08;;;21.80;99.90;;;;;;5042155;28;20304;-83
2021/08/22 11:40:09;;;;;;;2.75;2.20;;;22.30;99.90;;;;;;5035875;28;20520;-81
2021/08/22 11:42:35;;;;;;;1.88;1.75;;;22.50;99.90;;;;;;5023285;28;20179;-83
2021/08/22 11:45:09;;;;;;;2.17;1.20;;;22.70;99.90;;;;;;5034754;28;20164;-79
2021/08/22 11:47:36;;;;;;;5.97;1.60;;;22.50;99.90;;;;;;5034786;28;20206;-80
2021/08/22 11:50:06;;;;;;;3.42;1.63;;;22.30;99.90;;;;;;5032628;28;20781;-80
2021/08/22 11:52:37;;;;;;;3.42;2.00;;;22.00;99.90;;;;;;5024627;28;20168;-81
2021/08/22 11:55:07;;;;;;;1.73;1.52;;;21.90;99.90;;;;;;5026682;28;20636;-78
2021/08/22 11:57:33;;;;;;;3.17;1.67;;;21.60;99.90;;;;;;5029220;28;20558;-80
2021/08/22 11:59:58;;;;;;;2.00;1.77;;;21.40;99.90;;;;;;5034405;28;20175;-79
2021/08/22 12:02:25;;;;;;;8.55;2.63;;;21.40;99.90;;;;;;5035244;28;20192;-79
2021/08/22 12:05:16;;;;;;;1.52;1.42;;;21.50;99.90;;;;;;5034508;28;20179;-80
2021/08/22 12:07:47;;;;;;;1.67;1.58;;;21.50;99.90;;;;;;5034428;28;20195;-81
2021/08/22 12:10:27;;;;;;;2.38;1.65;;;21.50;99.90;;;;;;5034397;28;20251;-81
2021/08/22 12:12:54;;;;;;;1.77;1.58;;;21.60;99.90;;;;;;5034746;28;20576;-79
2021/08/22 12:15:34;;;;;;;4.32;2.00;;;21.70;99.90;;;;;;5033413;28;20258;-81
2021/08/22 12:18:19;;;;;;;2.20;1.98;;;21.80;99.90;;;;;;5032242;28;20215;-79
2021/08/22 12:20:47;;;;;;;10.73;1.98;;;21.80;99.90;;;;;;5030933;28;20184;-80
2021/08/22 12:23:14;;;;;;;2.83;1.70;;;21.70;99.90;;;;;;5034216;28;20176;-80
2021/08/22 12:25:41;;;;;;;3.33;1.80;;;21.80;99.90;;;;;;5033276;28;20179;-81
2021/08/22 12:28:19;;;;;;;8.13;2.00;;;21.90;99.90;;;;;;5049155;28;20548;-81
2021/08/22 12:30:45;;;;;;;2.58;2.08;;;21.90;99.90;;;;;;5030823;28;20203;-80
2021/08/22 12:33:31;;;;;;;3.00;2.47;;;21.80;99.90;;;;;;5047328;28;20709;-80
2021/08/22 12:36:05;;;;;;;3.90;2.00;;;21.60;99.90;;;;;;5029638;28;20239;-81
2021/08/22 12:38:43;;;;;;;2.63;2.42;;;21.50;99.90;;;;;;5048201;28;20175;-82
2021/08/22 12:41:25;;;;;;;2.60;2.40;;;21.40;99.90;;;;;;5033294;28;20172;-81
2021/08/22 12:43:52;;;;;;;2.72;2.53;;;21.10;99.90;;;;;;5033386;28;20175;-82
2021/08/22 12:46:18;;;;;;;2.85;2.65;;;21.20;99.90;;;;;;5032405;28;20234;-81
2021/08/22 12:48:44;;;;;;;5.40;2.85;;;21.20;99.90;;;;;;5031799;28;20616;-82
2021/08/22 12:51:11;;;;;;;7.40;2.75;;;21.00;99.90;;;;;;5033158;28;20212;-82
2021/08/22 12:53:37;;;;;;;2.90;2.70;;;21.00;99.90;;;;;;5033365;28;20199;-81